Time;durP1;ratioP1;P1;durP2;ratioP2;P2;SDS_P1;SDS_P2;PMS_P1;PMS_P2;Temp;Humidity;BMP_temperature;BMP_pressure;BME280_temperature;BME280_humidity;BME280_pressure;Samples;Min_cycle;Max_cycle;Signal;HPM_P1;HPM_P2
2020/12/25 00:00:35;;;;;;;10.07;3.55;;;;;;;6.33;75.69;99987.28;6187096;23;20013;-85
2020/12/25 00:03:14;;;;;;;8.90;3.20;;;;;;;6.31;74.56;99981.22;6159977;23;20116;-87
2020/12/25 00:05:50;;;;;;;6.20;2.53;;;;;;;6.32;75.25;99976.88;6162691;23;20522;-87
2020/12/25 00:08:37;;;;;;;9.15;3.20;;;;;;;6.29;74.78;99976.97;6160500;23;20032;-87
2020/12/25 00:11:07;;;;;;;6.25;2.63;;;;;;;6.27;74.91;99977.00;6161027;23;20040;-87
2020/12/25 00:13:59;;;;;;;8.48;2.85;;;;;;;6.23;73.89;99980.66;6160660;23;20108;-87
2020/12/25 00:16:27;;;;;;;7.25;2.42;;;;;;;6.23;75.03;99978.91;6161273;23;20325;-87
2020/12/25 00:18:57;;;;;;;6.80;2.40;;;;;;;6.20;75.37;99981.59;6161529;23;20045;-86
2020/12/25 00:21:53;;;;;;;5.55;2.22;;;;;;;6.14;74.72;99984.44;6160410;23;20021;-87
2020/12/25 00:24:25;;;;;;;4.65;1.90;;;;;;;6.17;75.33;99986.09;6186773;23;20021;-87
2020/12/25 00:27:17;;;;;;;9.93;1.77;;;;;;;6.10;74.19;99986.28;6161665;23;20322;-86
2020/12/25 00:29:48;;;;;;;5.60;2.00;;;;;;;6.12;75.05;99991.47;6161072;23;20067;-87
2020/12/25 00:32:15;;;;;;;4.28;1.60;;;;;;;6.08;74.29;99989.88;6159785;23;20092;-86
2020/12/25 00:34:56;;;;;;;5.53;1.80;;;;;;;6.05;74.43;99997.84;6165637;23;20129;-87
2020/12/25 00:37:23;;;;;;;10.60;1.90;;;;;;;6.00;74.30;99997.97;6188931;23;20028;-86
2020/12/25 00:39:55;;;;;;;7.30;1.90;;;;;;;5.94;74.21;99998.19;6163094;23;20021;-86
2020/12/25 00:42:51;;;;;;;9.18;2.03;;;;;;;5.87;73.93;99998.38;6164724;23;20021;-87
2020/12/25 00:45:27;;;;;;;8.13;1.60;;;;;;;5.88;74.29;100012.28;6165346;23;20383;-86
2020/12/25 00:48:08;;;;;;;3.60;1.30;;;;;;;5.82;74.20;100007.25;6164465;23;20351;-87
2020/12/25 00:50:38;;;;;;;8.52;2.00;;;;;;;5.79;74.27;100013.44;6164050;23;20021;-87
2020/12/25 00:53:11;;;;;;;5.78;1.95;;;;;;;5.76;74.13;100016.19;6188991;23;20021;-86
2020/12/25 00:55:45;;;;;;;5.68;1.60;;;;;;;5.70;74.56;100012.00;6162536;23;20056;-86
2020/12/25 00:58:25;;;;;;;3.78;1.60;;;;;;;5.67;74.33;100024.28;6163763;23;20021;-87
2020/12/25 01:00:57;;;;;;;7.63;1.60;;;;;;;5.60;74.23;100027.09;6164138;23;20463;-86
2020/12/25 01:03:39;;;;;;;6.38;1.83;;;;;;;5.58;74.26;100034.13;6159152;23;20017;-87
2020/12/25 01:06:20;;;;;;;6.72;1.80;;;;;;;5.50;73.79;100033.53;6162827;23;20052;-87
2020/12/25 01:09:12;;;;;;;5.90;2.28;;;;;;;5.46;73.92;100037.13;6162722;23;20100;-87
2020/12/25 01:11:44;;;;;;;9.93;3.47;;;;;;;5.46;74.14;100037.13;6162909;23;20103;-86
2020/12/25 01:14:27;;;;;;;7.35;3.80;;;;;;;5.41;73.99;100039.88;6162187;23;20467;-87
2020/12/25 01:17:58;;;;;;;9.45;5.25;;;;;;;5.35;73.83;100048.75;6166845;23;20391;-87
2020/12/25 01:20:59;;;;;;;8.05;4.38;;;;;;;5.32;74.01;100056.69;6158477;23;20021;-87
2020/12/25 01:23:38;;;;;;;5.93;2.87;;;;;;;5.27;73.98;100061.19;6117469;23;20021;-86
2020/12/25 01:26:22;;;;;;;12.60;3.17;;;;;;;5.21;73.46;100061.38;6163647;23;20798;-86
2020/12/25 01:32:11;;;;;;;4.60;2.17;;;;;;;5.13;73.78;100066.84;6184238;23;20028;-87
2020/12/25 01:34:40;;;;;;;5.75;1.65;;;;;;;5.13;74.16;100073.78;6162236;23;20482;-87
2020/12/25 01:37:10;;;;;;;6.60;2.30;;;;;;;5.08;74.27;100069.56;6164426;23;20315;-86
2020/12/25 01:40:22;;;;;;;6.43;2.17;;;;;;;5.00;73.96;100066.31;6165471;23;20017;-87
2020/12/25 01:43:01;;;;;;;5.40;1.90;;;;;;;5.00;74.07;100076.75;6163738;23;20028;-86
2020/12/25 01:46:09;;;;;;;8.00;2.38;;;;;;;4.94;74.12;100083.00;6162430;23;20022;-87
2020/12/25 01:49:38;;;;;;;8.98;2.30;;;;;;;4.89;74.06;100084.88;6099439;23;20049;-87
2020/12/25 01:52:36;;;;;;;7.13;1.90;;;;;;;4.88;74.17;100087.53;6097729;23;20560;-86
2020/12/25 01:55:27;;;;;;;4.57;1.40;;;;;;;4.86;74.19;100090.19;6120068;23;20330;-86
2020/12/25 01:58:20;;;;;;;7.18;2.50;;;;;;;4.80;74.01;100093.84;6074258;23;20040;-86
2020/12/25 02:01:13;;;;;;;12.30;2.05;;;;;;;4.76;73.83;100094.81;6074872;23;20532;-87
2020/12/25 02:03:46;;;;;;;4.25;1.70;;;;;;;4.77;74.16;100098.25;6061459;23;20457;-86
2020/12/25 02:14:21;;;;;;;7.72;1.30;;;;;;;4.67;74.22;100105.47;6010114;23;20026;-87
2020/12/25 02:17:35;;;;;;;4.78;2.03;;;;;;;4.65;74.28;100108.16;5975591;23;20031;-86
2020/12/25 02:20:26;;;;;;;7.30;1.85;;;;;;;4.62;74.18;100100.41;5987295;23;20034;-86
2020/12/25 02:23:17;;;;;;;8.52;1.50;;;;;;;4.59;74.29;100110.06;6056285;23;20022;-86
2020/12/25 02:26:02;;;;;;;9.77;2.20;;;;;;;4.59;74.51;100110.91;6072476;23;20102;-86
2020/12/25 02:28:51;;;;;;;7.90;1.52;;;;;;;4.55;74.42;100111.88;6074616;23;20097;-86
2020/12/25 02:32:05;;;;;;;;;;;;;;;;;;;;;
2020/12/25 02:34:56;;;;;;;9.73;1.65;;;;;;;4.52;74.44;100122.41;6189673;23;20021;-86
2020/12/25 02:38:35;;;;;;;9.32;1.83;;;;;;;4.51;74.75;100125.88;6165170;23;20083;-87
2020/12/25 02:42:28;;;;;;;14.25;1.95;;;;;;;4.50;74.26;100138.09;6032636;23;20049;-86
2020/12/25 02:46:21;;;;;;;;;;;;;;;;;;;;;
2020/12/25 02:57:58;;;;;;;7.55;1.88;;;;;;;4.37;74.38;100149.72;6070532;23;20026;-87
2020/12/25 03:00:59;;;;;;;8.25;1.25;;;;;;;4.40;74.58;100155.69;6041961;23;20057;-86
2020/12/25 03:04:25;;;;;;;;;;;;;;;;;;;;;
2020/12/25 03:08:10;;;;;;;6.32;1.70;;;;;;;4.34;74.46;100147.19;5992198;23;20024;-87
2020/12/25 03:11:36;;;;;;;;;;;;;;;;;;;;;
2020/12/25 03:15:04;;;;;;;9.93;2.60;;;;;;;4.32;74.39;100159.38;5925971;24;20353;-86
2020/12/25 03:18:42;;;;;;;8.68;1.80;;;;;;;4.28;74.21;100161.22;5926796;24;20012;-87
2020/12/25 03:30:02;;;;;;;4.75;0.80;;;;;;;4.23;74.39;100169.13;5902340;24;20060;-87
2020/12/25 03:37:11;;;;;;;5.53;1.00;;;;;;;4.24;74.58;100159.56;5961576;23;20039;-85
2020/12/25 03:39:37;;;;;;;7.43;1.40;;;;;;;4.21;74.75;100163.13;6159662;23;20017;-85
2020/12/25 03:42:03;;;;;;;8.55;1.25;;;;;;;4.19;74.89;100159.69;6159671;23;20028;-85
2020/12/25 03:44:29;;;;;;;3.55;1.20;;;;;;;4.19;74.79;100169.25;6159644;23;20036;-85
2020/12/25 03:46:55;;;;;;;9.82;1.60;;;;;;;4.19;74.49;100171.84;6186027;23;20021;-85
2020/12/25 03:49:21;;;;;;;5.97;1.50;;;;;;;4.17;74.58;100171.91;6185556;23;20021;-84
2020/12/25 03:51:47;;;;;;;10.75;1.77;;;;;;;4.16;74.27;100178.00;6186073;23;20355;-85
2020/12/25 03:54:14;;;;;;;10.52;1.30;;;;;;;4.14;74.24;100179.78;6159597;23;20021;-85
2020/12/25 03:56:40;;;;;;;11.43;1.40;;;;;;;4.12;74.48;100172.00;6159344;23;20036;-85
2020/12/25 03:59:06;;;;;;;11.75;1.67;;;;;;;4.12;74.73;100173.75;6185984;23;20021;-85
2020/12/25 04:01:32;;;;;;;6.45;1.27;;;;;;;4.11;74.77;100172.06;6185550;23;20021;-85
2020/12/25 04:03:58;;;;;;;5.55;1.17;;;;;;;4.10;74.59;100179.00;6185328;23;20021;-85
2020/12/25 04:06:24;;;;;;;5.53;1.65;;;;;;;4.11;74.79;100182.47;6185704;23;20021;-85
2020/12/25 04:08:50;;;;;;;12.02;1.70;;;;;;;4.10;74.79;100192.03;6160935;23;20518;-85
2020/12/25 04:11:16;;;;;;;5.03;1.33;;;;;;;4.09;74.49;100185.09;6187843;23;20017;-85
2020/12/25 04:13:42;;;;;;;6.75;1.30;;;;;;;4.08;74.18;100190.34;6161254;23;20486;-85
2020/12/25 04:16:09;;;;;;;4.88;1.25;;;;;;;4.06;74.12;100194.72;6161510;23;20399;-85
2020/12/25 04:18:35;;;;;;;7.15;1.20;;;;;;;4.03;74.10;100193.91;6161361;23;20025;-85
2020/12/25 04:21:01;;;;;;;4.05;1.20;;;;;;;4.01;74.39;100193.06;6187928;23;20040;-85
2020/12/25 04:23:30;;;;;;;10.60;1.55;;;;;;;4.01;74.20;100200.06;6161126;23;20021;-85
2020/12/25 04:25:56;;;;;;;8.85;1.60;;;;;;;3.99;74.24;100205.28;6187454;23;20032;-85
2020/12/25 04:28:22;;;;;;;8.82;1.60;;;;;;;3.97;74.24;100203.63;6161621;23;20021;-85
2020/12/25 04:30:49;;;;;;;9.07;1.63;;;;;;;3.97;74.45;100208.81;6187288;23;20017;-85
2020/12/25 04:33:15;;;;;;;8.93;1.30;;;;;;;3.95;74.18;100216.66;6187551;23;20035;-85
2020/12/25 04:35:41;;;;;;;11.52;1.92;;;;;;;3.94;74.57;100220.19;6187363;23;20029;-85
2020/12/25 04:38:07;;;;;;;9.07;2.05;;;;;;;3.94;74.58;100229.72;6161148;23;20024;-85
2020/12/25 04:40:34;;;;;;;12.15;1.67;;;;;;;3.93;74.72;100234.09;6187691;23;20017;-85
2020/12/25 04:43:01;;;;;;;5.82;1.90;;;;;;;3.91;74.73;100230.66;6187075;23;20480;-85
2020/12/25 04:45:27;;;;;;;14.25;1.85;;;;;;;3.92;74.95;100242.78;6187329;23;20478;-85
2020/12/25 04:47:54;;;;;;;5.82;1.48;;;;;;;3.93;75.24;100244.50;6187560;23;20028;-85
2020/12/25 04:50:20;;;;;;;7.93;1.75;;;;;;;3.94;75.23;100247.97;6187142;23;20483;-85
2020/12/25 04:52:48;;;;;;;7.05;1.52;;;;;;;3.94;75.06;100246.22;6187378;23;20025;-85
2020/12/25 04:55:15;;;;;;;4.93;1.30;;;;;;;3.96;75.38;100256.63;6187583;23;20027;-85
2020/12/25 04:57:41;;;;;;;7.10;1.90;;;;;;;3.97;75.08;100248.78;6160984;23;20084;-85
2020/12/25 05:00:23;;;;;;;10.73;1.92;;;;;;;3.95;74.89;100247.94;6161450;23;20395;-85
2020/12/25 05:02:51;;;;;;;7.20;1.60;;;;;;;4.00;75.51;100240.88;6186922;23;20029;-85
2020/12/25 05:05:24;;;;;;;5.05;1.70;;;;;;;4.03;75.42;100242.53;6187266;23;20024;-85
2020/12/25 05:07:52;;;;;;;;;;;;;;;4.05;74.94;100248.59;6187875;23;20028;-85
2020/12/25 05:10:18;;;;;;;13.98;2.05;;;;;;;4.12;75.68;100249.31;6161269;23;20232;-85
2020/12/25 05:12:46;;;;;;;9.98;1.60;;;;;;;4.11;75.67;100251.06;6187215;23;20017;-85
2020/12/25 05:15:14;;;;;;;8.18;1.98;;;;;;;4.14;76.00;100251.00;6187307;23;20025;-85
2020/12/25 05:17:41;;;;;;;8.18;1.50;;;;;;;4.17;75.81;100247.47;6161197;23;20032;-85
2020/12/25 05:20:09;;;;;;;12.35;2.22;;;;;;;4.22;75.79;100244.75;6186379;23;20100;-85
2020/12/25 05:22:36;;;;;;;6.28;1.65;;;;;;;4.24;75.80;100250.78;6186651;23;20025;-85
2020/12/25 05:25:05;;;;;;;8.05;1.65;;;;;;;4.25;75.41;100255.97;6187317;23;20025;-85
2020/12/25 05:27:31;;;;;;;12.40;1.83;;;;;;;4.28;75.49;100257.63;6161028;23;20036;-85
2020/12/25 05:29:58;;;;;;;5.55;1.27;;;;;;;4.30;75.11;100264.53;6161214;23;20021;-85
2020/12/25 05:32:29;;;;;;;7.10;1.65;;;;;;;4.28;74.54;100258.50;6160862;23;20027;-85
2020/12/25 05:34:57;;;;;;;8.93;1.60;;;;;;;4.30;75.11;100264.53;6186819;23;20024;-85
2020/12/25 05:37:35;;;;;;;10.57;1.92;;;;;;;4.28;74.23;100263.72;6160707;23;20025;-85
2020/12/25 05:40:06;;;;;;;7.68;1.65;;;;;;;4.29;74.62;100270.63;6187218;23;20017;-85
2020/12/25 05:42:49;;;;;;;8.25;1.52;;;;;;;4.28;74.65;100271.53;6160830;23;20317;-85
2020/12/25 05:45:20;;;;;;;7.63;1.33;;;;;;;4.31;75.31;100270.59;6187207;23;20021;-85
2020/12/25 05:48:01;;;;;;;8.32;1.75;;;;;;;4.34;75.52;100267.06;6187056;23;20344;-85
2020/12/25 05:50:28;;;;;;;4.70;1.20;;;;;;;4.35;75.62;100264.44;6160703;23;20024;-85
2020/12/25 05:52:55;;;;;;;6.25;1.38;;;;;;;4.38;75.42;100261.72;6160669;23;20021;-85
2020/12/25 05:55:21;;;;;;;13.60;1.75;;;;;;;4.40;75.80;100270.38;6186996;23;20021;-85
2020/12/25 05:57:52;;;;;;;4.97;1.67;;;;;;;4.41;75.71;100271.25;6160873;23;20025;-85
2020/12/25 06:00:19;;;;;;;10.07;1.70;;;;;;;4.47;75.83;100278.94;6161025;23;20017;-85
2020/12/25 06:02:47;;;;;;;8.10;1.70;;;;;;;4.50;75.75;100284.06;6160627;23;20352;-85
2020/12/25 06:05:14;;;;;;;4.90;1.52;;;;;;;4.53;75.82;100286.59;6160920;23;20021;-85
2020/12/25 06:07:50;;;;;;;5.95;1.15;;;;;;;4.52;75.08;100289.25;6186753;23;20032;-85
2020/12/25 06:10:28;;;;;;;9.23;1.83;;;;;;;4.57;75.58;100298.66;6160688;23;20348;-85
2020/12/25 06:12:56;;;;;;;8.32;1.90;;;;;;;4.62;76.07;100295.09;6186314;23;20028;-85
2020/12/25 06:15:26;;;;;;;8.02;1.52;;;;;;;4.65;76.17;100292.41;6186371;23;20021;-85
2020/12/25 06:18:05;;;;;;;3.63;1.42;;;;;;;4.68;75.78;100294.97;6160608;23;20028;-85
2020/12/25 06:20:38;;;;;;;7.13;1.77;;;;;;;4.74;76.05;100294.81;6160299;23;20024;-85
2020/12/25 06:23:04;;;;;;;5.63;1.45;;;;;;;4.78;76.14;100299.06;6160388;23;20044;-85
2020/12/25 06:25:31;;;;;;;7.57;1.42;;;;;;;4.81;75.73;100295.50;6160141;23;20032;-85
2020/12/25 06:28:00;;;;;;;12.05;1.65;;;;;;;4.83;75.64;100298.97;6160555;23;20021;-85
2020/12/25 06:30:28;;;;;;;8.65;1.42;;;;;;;4.84;75.47;100287.63;6160453;23;20017;-85
2020/12/25 06:32:56;;;;;;;10.55;2.03;;;;;;;4.85;74.59;100298.91;6160288;23;20027;-85
2020/12/25 06:35:33;;;;;;;8.43;1.73;;;;;;;4.82;73.91;100310.25;6160618;23;20351;-85
2020/12/25 06:38:04;;;;;;;6.53;1.90;;;;;;;4.82;73.92;100312.88;6159915;23;20488;-85
2020/12/25 06:40:31;;;;;;;6.00;1.10;;;;;;;4.80;74.24;100322.50;6186516;23;20025;-85
2020/12/25 06:42:57;;;;;;;7.22;1.42;;;;;;;4.77;74.29;100323.44;6160264;23;20044;-85
2020/12/25 06:45:29;;;;;;;4.75;1.40;;;;;;;4.72;73.72;100314.00;6186016;23;20021;-85
2020/12/25 06:48:12;;;;;;;7.05;1.67;;;;;;;4.66;73.45;100321.06;6160350;23;20021;-85
2020/12/25 06:50:42;;;;;;;7.97;1.23;;;;;;;4.64;73.27;100320.25;6160335;23;20040;-85
2020/12/25 06:53:09;;;;;;;10.05;1.65;;;;;;;4.63;73.74;100330.72;6159743;23;20032;-85
2020/12/25 06:55:43;;;;;;;7.20;1.77;;;;;;;4.55;73.47;100320.44;6160450;23;20318;-85
2020/12/25 06:58:10;;;;;;;6.28;1.55;;;;;;;4.54;73.50;100326.56;6160097;23;20033;-85
2020/12/25 07:00:40;;;;;;;4.25;1.27;;;;;;;4.49;73.38;100333.63;6160337;23;20043;-86
2020/12/25 07:03:12;;;;;;;6.03;1.25;;;;;;;4.45;73.05;100332.00;6186230;23;20021;-85
2020/12/25 07:05:46;;;;;;;5.60;1.50;;;;;;;4.39;73.36;100332.97;6186321;23;20028;-85
2020/12/25 07:08:43;;;;;;;5.93;1.38;;;;;;;4.33;73.27;100335.72;6186208;23;20021;-85
2020/12/25 07:11:10;;;;;;;12.38;1.60;;;;;;;4.32;73.49;100337.47;6160276;23;20322;-85
2020/12/25 07:13:40;;;;;;;4.95;1.48;;;;;;;4.27;73.77;100340.16;6186146;23;20025;-85
2020/12/25 07:16:08;;;;;;;8.00;1.45;;;;;;;4.23;73.89;100359.34;6186272;23;20021;-85
2020/12/25 07:18:34;;;;;;;8.57;1.60;;;;;;;4.20;74.51;100362.06;6186168;23;20348;-85
2020/12/25 07:21:03;;;;;;;2.00;1.15;;;;;;;4.19;74.84;100372.50;6159707;23;20017;-85
2020/12/25 07:23:29;;;;;;;6.82;1.60;;;;;;;4.19;75.06;100370.75;6159923;23;20344;-85
2020/12/25 07:26:00;;;;;;;6.35;1.90;;;;;;;4.19;74.97;100369.91;6160169;23;20029;-85
2020/12/25 07:28:28;;;;;;;6.35;1.50;;;;;;;4.21;75.55;100379.41;6160102;23;20028;-85
2020/12/25 07:30:57;;;;;;;3.25;1.40;;;;;;;4.25;75.81;100370.63;6160103;23;20050;-85
2020/12/25 07:33:24;;;;;;;8.57;1.63;;;;;;;4.28;75.92;100370.56;6185923;23;20025;-85
2020/12/25 07:35:50;;;;;;;5.78;1.50;;;;;;;4.32;76.12;100371.34;6159584;23;20036;-85
2020/12/25 07:38:27;;;;;;;6.88;1.83;;;;;;;4.36;75.99;100366.91;6185615;23;20416;-85
2020/12/25 07:40:54;;;;;;;5.65;1.77;;;;;;;4.40;75.88;100371.19;6159883;23;20021;-85
2020/12/25 07:43:20;;;;;;;6.80;1.65;;;;;;;4.43;75.96;100384.16;6159004;23;20029;-85
2020/12/25 07:45:47;;;;;;;6.13;1.45;;;;;;;4.46;75.69;100375.41;6185992;23;20044;-85
2020/12/25 07:48:14;;;;;;;5.70;1.52;;;;;;;4.47;75.60;100380.59;6185952;23;20025;-85
2020/12/25 07:50:45;;;;;;;2.58;1.45;;;;;;;4.46;75.14;100372.81;6185974;23;20025;-85
2020/12/25 07:53:16;;;;;;;5.32;1.67;;;;;;;4.47;75.06;100380.59;6159687;23;20348;-85
2020/12/25 07:55:49;;;;;;;4.70;1.73;;;;;;;4.48;74.88;100384.91;6186060;23;20087;-85
2020/12/25 07:58:17;;;;;;;4.35;1.38;;;;;;;4.48;74.78;100387.53;6185972;23;20028;-85
2020/12/25 08:00:46;;;;;;;3.83;1.55;;;;;;;4.46;74.79;100389.31;6185515;23;20024;-85
2020/12/25 08:03:13;;;;;;;4.43;1.33;;;;;;;4.45;74.85;100378.91;6185390;23;20448;-85
2020/12/25 08:05:39;;;;;;;4.72;1.30;;;;;;;4.43;74.62;100384.16;6185558;23;20452;-86
2020/12/25 08:08:06;;;;;;;6.75;1.98;;;;;;;4.40;74.88;100381.59;6159694;23;20021;-85
2020/12/25 08:10:36;;;;;;;5.35;1.48;;;;;;;4.38;74.45;100386.00;6185534;23;20021;-85
2020/12/25 08:13:05;;;;;;;4.22;1.30;;;;;;;4.36;74.52;100382.56;6159512;23;20021;-85
2020/12/25 08:15:35;;;;;;;6.55;1.60;;;;;;;4.34;74.63;100377.38;6159440;23;20096;-85
2020/12/25 08:18:04;;;;;;;2.65;1.30;;;;;;;4.33;74.83;100382.66;6185438;23;20463;-85
2020/12/25 08:20:32;;;;;;;4.78;1.40;;;;;;;4.33;74.79;100386.09;6159718;23;20048;-85
2020/12/25 08:23:00;;;;;;;11.27;1.63;;;;;;;4.33;75.19;100390.47;6159559;23;20056;-85
2020/12/25 08:25:30;;;;;;;7.32;1.67;;;;;;;4.31;74.93;100393.09;6185901;23;20043;-85
2020/12/25 08:27:57;;;;;;;7.13;1.80;;;;;;;4.31;75.11;100395.72;6159300;23;20460;-85
2020/12/25 08:30:24;;;;;;;4.57;1.77;;;;;;;4.32;75.38;100394.81;6159727;23;20356;-85
2020/12/25 08:32:55;;;;;;;5.70;1.98;;;;;;;4.32;75.41;100393.94;6159515;23;20075;-85
2020/12/25 08:35:25;;;;;;;3.53;1.70;;;;;;;4.36;75.91;100400.81;6185827;23;20329;-85
2020/12/25 08:38:01;;;;;;;5.25;2.08;;;;;;;4.37;75.62;100400.78;6159263;23;20027;-85
2020/12/25 08:40:32;;;;;;;9.27;2.30;;;;;;;4.43;76.30;100397.19;6159630;23;20053;-85
2020/12/25 08:43:09;;;;;;;4.35;2.30;;;;;;;4.48;76.10;100397.09;6185531;23;20021;-86
2020/12/25 08:45:37;;;;;;;5.03;1.92;;;;;;;4.56;76.84;100395.16;6159167;23;20452;-85
2020/12/25 08:48:12;;;;;;;4.10;1.70;;;;;;;4.59;76.28;100405.53;6185147;23;20048;-85
2020/12/25 08:50:40;;;;;;;6.95;2.05;;;;;;;4.67;76.96;100408.84;6185823;23;20021;-85
2020/12/25 08:53:13;;;;;;;4.43;1.58;;;;;;;4.72;76.16;100405.28;6185237;23;20091;-85
2020/12/25 08:55:39;;;;;;;;;;;;;;;4.80;75.88;100398.13;6188079;23;20021;-85
2020/12/25 08:58:05;;;;;;;8.48;2.47;;;;;;;4.89;76.54;100410.09;6187494;23;19922;-85
2020/12/25 09:00:31;;;;;;;3.78;2.10;;;;;;;4.91;76.50;100405.72;6187425;23;20043;-85
2020/12/25 09:02:58;;;;;;;8.02;1.75;;;;;;;4.94;76.09;100421.31;6187182;23;20021;-85
2020/12/25 09:05:24;;;;;;;2.97;1.65;;;;;;;4.97;75.87;100423.00;6161394;23;20021;-85
2020/12/25 09:07:51;;;;;;;5.40;1.98;;;;;;;4.98;75.85;100420.34;6187339;23;20021;-85
2020/12/25 09:10:17;;;;;;;6.45;2.40;;;;;;;4.99;75.52;100435.09;6187055;23;20032;-85
2020/12/25 09:12:43;;;;;;;6.55;2.83;;;;;;;5.00;75.76;100436.81;6187222;23;20032;-86
2020/12/25 09:15:09;;;;;;;3.88;2.20;;;;;;;5.00;75.88;100434.19;6187390;23;20032;-84
2020/12/25 09:17:35;;;;;;;10.05;3.15;;;;;;;5.01;75.48;100435.91;6186914;23;20025;-86
2020/12/25 09:20:06;;;;;;;8.30;2.67;;;;;;;5.01;75.31;100441.13;6187361;23;20021;-86
2020/12/25 09:22:32;;;;;;;5.90;2.72;;;;;;;5.01;75.29;100437.69;6186844;23;20484;-86
2020/12/25 09:24:58;;;;;;;8.45;2.17;;;;;;;4.99;75.07;100435.09;6187452;23;20028;-85
2020/12/25 09:27:24;;;;;;;4.00;2.20;;;;;;;4.97;75.09;100436.88;6186826;23;20032;-86
2020/12/25 09:29:50;;;;;;;5.15;1.80;;;;;;;4.96;74.95;100435.16;6187380;23;20032;-86
2020/12/25 09:32:16;;;;;;;4.10;1.90;;;;;;;4.95;75.08;100438.69;6186783;23;20036;-86
2020/12/25 09:34:42;;;;;;;3.38;2.10;;;;;;;4.93;75.25;100440.44;6187375;23;20403;-86
2020/12/25 10:48:58;;;;;;;9.75;2.95;;;;;;;6.14;76.12;100465.41;6127144;23;20067;-87
2020/12/25 10:51:24;;;;;;;8.80;3.08;;;;;;;6.15;76.37;100464.50;6101674;23;20020;-87
2020/12/25 10:53:50;;;;;;;5.45;2.67;;;;;;;6.17;76.55;100452.22;6126960;23;20089;-87
2020/12/25 10:56:24;;;;;;;5.13;2.95;;;;;;;6.21;75.78;100460.88;6128206;23;20034;-87
2020/12/25 10:58:52;;;;;;;9.38;2.97;;;;;;;6.28;77.18;100465.00;6156694;23;20028;-87
2020/12/25 11:01:25;;;;;;;7.05;3.47;;;;;;;6.34;76.72;100466.59;6156166;23;20018;-87
2020/12/25 11:03:52;;;;;;;5.90;2.50;;;;;;;6.42;77.42;100462.00;6156439;23;20021;-86
2020/12/25 11:06:18;;;;;;;6.93;2.58;;;;;;;6.50;77.55;100459.16;6130671;23;20036;-86
2020/12/25 11:08:48;;;;;;;6.63;2.63;;;;;;;6.56;76.70;100459.00;6156219;23;20026;-89
2020/12/25 11:11:28;;;;;;;10.52;2.75;;;;;;;6.65;76.49;100458.72;6155161;23;20017;-87
2020/12/25 11:13:55;;;;;;;11.05;2.47;;;;;;;6.78;78.10;100458.38;6130458;23;20021;-87
2020/12/25 11:16:25;;;;;;;8.02;2.60;;;;;;;6.89;77.86;100466.75;6156343;23;20021;-87
2020/12/25 11:18:52;;;;;;;6.10;2.10;;;;;;;6.99;77.39;100458.63;6130239;23;20025;-87
2020/12/25 11:21:23;;;;;;;6.20;2.20;;;;;;;7.07;76.55;100463.63;6156441;23;20028;-87
2020/12/25 11:23:51;;;;;;;4.55;2.25;;;;;;;7.15;77.38;100454.59;6129962;23;20029;-87
2020/12/25 11:26:25;;;;;;;9.73;2.42;;;;;;;7.21;75.83;100457.97;6130525;23;20368;-87
2020/12/25 11:28:54;;;;;;;6.50;2.03;;;;;;;7.27;76.06;100460.38;6130158;23;20030;-87
2020/12/25 11:31:22;;;;;;;6.85;2.40;;;;;;;7.30;75.97;100458.50;6130101;23;20029;-87
2020/12/25 11:33:49;;;;;;;7.53;1.92;;;;;;;7.37;77.66;100460.94;6156161;23;20022;-87
2020/12/25 11:36:22;;;;;;;12.43;2.50;;;;;;;7.43;77.23;100455.50;6130424;23;20021;-87
2020/12/25 11:38:49;;;;;;;6.45;2.05;;;;;;;7.53;76.68;100470.03;6130617;23;20108;-87
2020/12/25 11:41:19;;;;;;;9.23;2.53;;;;;;;7.56;76.07;100451.56;6156235;23;20021;-87
2020/12/25 11:43:47;;;;;;;6.55;2.17;;;;;;;7.64;75.51;100458.31;6156023;23;20452;-87
2020/12/25 11:46:14;;;;;;;6.03;2.38;;;;;;;7.66;75.37;100461.72;6154747;23;20045;-89
2020/12/25 11:48:40;;;;;;;5.15;2.67;;;;;;;7.67;75.30;100453.81;6130027;23;20365;-86
2020/12/25 11:51:06;;;;;;;5.03;2.40;;;;;;;7.71;75.67;100461.59;6156251;23;20025;-87
2020/12/25 11:53:33;;;;;;;7.10;2.60;;;;;;;7.71;75.12;100456.34;6129771;23;20032;-87
2020/12/25 11:55:59;;;;;;;10.93;2.42;;;;;;;7.71;74.57;100464.22;6129967;23;20025;-87
2020/12/25 11:58:25;;;;;;;4.55;2.42;;;;;;;7.68;74.44;100460.81;6156110;23;20029;-87
2020/12/25 12:00:52;;;;;;;8.95;2.17;;;;;;;7.66;74.22;100454.75;6130271;23;20022;-87
2020/12/25 12:03:18;;;;;;;6.85;2.60;;;;;;;7.64;74.52;100451.31;6155936;23;20025;-87
2020/12/25 12:05:44;;;;;;;10.38;2.90;;;;;;;7.64;75.02;100453.94;6156137;23;20028;-87
2020/12/25 12:08:11;;;;;;;9.50;2.90;;;;;;;7.66;75.13;100453.88;6130125;23;20029;-86
2020/12/25 12:10:38;;;;;;;13.80;2.88;;;;;;;7.67;74.77;100448.59;6156236;23;20037;-86
2020/12/25 12:13:05;;;;;;;8.00;2.42;;;;;;;7.69;74.42;100456.41;6155848;23;20026;-86
2020/12/25 12:15:35;;;;;;;6.78;2.33;;;;;;;7.67;73.32;100460.84;6155692;23;20026;-86
2020/12/25 12:18:02;;;;;;;4.35;2.28;;;;;;;7.67;73.85;100469.53;6156137;23;20021;-86
2020/12/25 12:20:29;;;;;;;8.45;2.83;;;;;;;7.65;73.60;100467.88;6129740;23;20017;-87
2020/12/25 12:22:55;;;;;;;7.90;2.58;;;;;;;7.62;73.35;100468.84;6155861;23;20025;-87
2020/12/25 12:25:21;;;;;;;8.57;2.67;;;;;;;7.57;73.44;100468.16;6129857;23;20460;-87
2020/12/25 12:27:48;;;;;;;8.27;2.22;;;;;;;7.53;73.26;100479.63;6155902;23;20021;-87
2020/12/25 12:30:14;;;;;;;9.63;2.50;;;;;;;7.46;73.34;100471.13;6132155;23;20361;-86
2020/12/25 12:32:40;;;;;;;10.05;2.10;;;;;;;7.42;73.22;100470.38;6131941;23;20022;-86
2020/12/25 12:35:06;;;;;;;5.18;2.13;;;;;;;7.39;73.67;100470.47;6132100;23;20037;-86
2020/12/25 12:37:33;;;;;;;7.53;1.98;;;;;;;7.35;73.82;100475.84;6131973;23;20028;-86
2020/12/25 12:39:59;;;;;;;12.93;2.58;;;;;;;7.32;73.42;100476.78;6157998;23;20022;-86
2020/12/25 12:42:25;;;;;;;5.80;2.03;;;;;;;7.28;73.82;100478.66;6157442;23;20026;-86
2020/12/25 12:44:51;;;;;;;9.75;2.17;;;;;;;7.25;74.06;100470.06;6132070;23;20021;-89
2020/12/25 12:47:17;;;;;;;7.53;2.10;;;;;;;7.23;73.79;100466.63;6157613;23;20363;-91
2020/12/25 12:49:44;;;;;;;10.07;2.25;;;;;;;7.20;73.68;100467.56;6157746;23;20030;-91
2020/12/25 12:52:10;;;;;;;6.70;1.98;;;;;;;7.17;73.82;100471.16;6155784;23;20017;-86
2020/12/25 12:54:36;;;;;;;5.32;1.73;;;;;;;7.13;73.73;100469.53;6157477;23;20487;-86
2020/12/25 12:57:04;;;;;;;8.32;2.33;;;;;;;7.11;73.46;100473.94;6157766;23;20348;-88
2020/12/25 12:59:30;;;;;;;7.90;2.15;;;;;;;7.09;73.84;100478.38;6156365;23;20380;-86
2020/12/25 13:01:56;;;;;;;6.55;1.90;;;;;;;7.05;73.61;100479.38;6131772;23;20021;-86
2020/12/25 13:04:26;;;;;;;5.72;1.65;;;;;;;7.03;73.94;100478.59;6157845;23;20028;-86
2020/12/25 13:06:52;;;;;;;11.65;2.25;;;;;;;7.00;73.99;100473.44;6157862;23;20026;-86
2020/12/25 13:09:18;;;;;;;6.55;2.03;;;;;;;6.97;74.12;100470.91;6131469;23;20025;-86
2020/12/25 13:12:02;;;;;;;3.72;1.73;;;;;;;6.96;74.16;100474.44;6157572;23;20021;-87
2020/12/25 13:14:28;;;;;;;5.47;2.30;;;;;;;6.93;74.03;100471.88;6131470;23;20057;-86
2020/12/25 13:16:54;;;;;;;6.68;2.35;;;;;;;6.91;73.77;100467.56;6131705;23;20031;-86
2020/12/25 13:19:21;;;;;;;7.32;1.77;;;;;;;6.91;74.13;100470.19;6157248;23;20025;-86
2020/12/25 13:21:47;;;;;;;9.55;2.40;;;;;;;6.94;75.61;100471.84;6157160;23;20025;-86
2020/12/25 13:24:13;;;;;;;8.00;2.42;;;;;;;7.02;76.95;100471.59;6157345;23;20027;-86
2020/12/25 13:26:39;;;;;;;7.10;2.35;;;;;;;7.16;77.72;100469.44;6131689;23;20029;-87
2020/12/25 13:29:05;;;;;;;8.20;2.40;;;;;;;7.32;77.78;100468.09;6157712;23;20025;-86
2020/12/25 13:31:31;;;;;;;11.15;2.20;;;;;;;7.50;78.05;100464.88;6157436;23;20021;-86
2020/12/25 13:33:58;;;;;;;7.20;2.13;;;;;;;7.66;77.63;100459.97;6131379;23;20025;-86
2020/12/25 13:36:25;;;;;;;8.02;2.15;;;;;;;7.79;76.17;100457.81;6157411;23;20021;-86
2020/12/25 13:38:51;;;;;;;10.10;1.92;;;;;;;7.90;75.62;100461.81;6131198;23;20021;-86
2020/12/25 13:41:20;;;;;;;8.45;2.45;;;;;;;7.97;75.69;100455.47;6156694;23;20026;-87
2020/12/25 13:43:47;;;;;;;7.15;2.10;;;;;;;8.09;77.44;100459.41;6157176;23;20384;-87
2020/12/25 13:46:19;;;;;;;6.70;2.17;;;;;;;8.20;75.65;100459.91;6156924;23;20465;-86
2020/12/25 13:48:46;;;;;;;10.05;2.05;;;;;;;8.32;75.74;100465.59;6157027;23;20461;-87
2020/12/25 13:51:16;;;;;;;7.32;1.90;;;;;;;8.38;74.27;100460.16;6131444;23;20049;-87
2020/12/25 13:53:43;;;;;;;8.52;3.10;;;;;;;8.49;76.60;100462.38;6131286;23;20392;-87